sensor_id;sensor_type;location;lat;lon;timestamp;pressure;altitude;pressure_sealevel;temperature;humidity
55068;BME280;40965;52.368;9.712;2023-05-20T00:01:29;101821.22;;;11.48;66.88
55068;BME280;40965;52.368;9.712;2023-05-20T00:03:56;101818.59;;;11.45;67.59
55068;BME280;40965;52.368;9.712;2023-05-20T00:06:22;101822.91;;;11.41;67.13
55068;BME280;40965;52.368;9.712;2023-05-20T00:08:49;101809.78;;;11.38;67.75
55068;BME280;40965;52.368;9.712;2023-05-20T00:11:15;101816.78;;;11.36;68.19
55068;BME280;40965;52.368;9.712;2023-05-20T00:13:42;101818.53;;;11.37;68.51
55068;BME280;40965;52.368;9.712;2023-05-20T00:16:14;101811.53;;;11.36;68.34
55068;BME280;40965;52.368;9.712;2023-05-20T00:18:41;101809.75;;;11.32;68.43
55068;BME280;40965;52.368;9.712;2023-05-20T00:21:07;101810.63;;;11.29;68.31
55068;BME280;40965;52.368;9.712;2023-05-20T00:23:34;101801.84;;;11.24;68.52
55068;BME280;40965;52.368;9.712;2023-05-20T00:26:01;101808.78;;;11.19;69.36
55068;BME280;40965;52.368;9.712;2023-05-20T00:28:27;101808.84;;;11.27;69.24
55068;BME280;40965;52.368;9.712;2023-05-20T00:30:54;101807.94;;;11.21;69.71
55068;BME280;40965;52.368;9.712;2023-05-20T00:33:21;101814.00;;;11.14;69.71
55068;BME280;40965;52.368;9.712;2023-05-20T00:35:47;101806.13;;;11.14;69.90
55068;BME280;40965;52.368;9.712;2023-05-20T00:38:14;101806.06;;;11.08;70.66
55068;BME280;40965;52.368;9.712;2023-05-20T00:40:40;101802.59;;;11.06;70.30
55068;BME280;40965;52.368;9.712;2023-05-20T00:43:08;101783.41;;;11.12;70.44
55068;BME280;40965;52.368;9.712;2023-05-20T00:45:36;101792.97;;;11.06;70.27
55068;BME280;40965;52.368;9.712;2023-05-20T00:48:03;101799.06;;;11.02;70.08
55068;BME280;40965;52.368;9.712;2023-05-20T00:50:30;101793.78;;;10.98;70.79
55068;BME280;40965;52.368;9.712;2023-05-20T00:52:57;101804.19;;;10.88;71.09
55068;BME280;40965;52.368;9.712;2023-05-20T00:55:25;101806.78;;;10.84;71.31
55068;BME280;40965;52.368;9.712;2023-05-20T00:57:52;101802.31;;;10.76;71.91
55068;BME280;40965;52.368;9.712;2023-05-20T01:00:18;101801.47;;;10.76;71.94
55068;BME280;40965;52.368;9.712;2023-05-20T01:02:45;101803.16;;;10.71;71.89
55068;BME280;40965;52.368;9.712;2023-05-20T01:05:11;101800.56;;;10.72;71.99
55068;BME280;40965;52.368;9.712;2023-05-20T01:07:38;101803.16;;;10.72;71.61
55068;BME280;40965;52.368;9.712;2023-05-20T01:10:05;101800.59;;;10.77;71.20
55068;BME280;40965;52.368;9.712;2023-05-20T01:12:53;101797.94;;;10.74;71.03
55068;BME280;40965;52.368;9.712;2023-05-20T01:15:26;101804.03;;;10.70;71.27
55068;BME280;40965;52.368;9.712;2023-05-20T01:17:56;101794.38;;;10.66;71.11
55068;BME280;40965;52.368;9.712;2023-05-20T01:20:27;101796.16;;;10.67;71.49
55068;BME280;40965;52.368;9.712;2023-05-20T01:22:55;101788.22;;;10.61;71.54
55068;BME280;40965;52.368;9.712;2023-05-20T01:25:22;101794.34;;;10.61;71.66
55068;BME280;40965;52.368;9.712;2023-05-20T01:27:50;101792.63;;;10.62;71.81
55068;BME280;40965;52.368;9.712;2023-05-20T01:30:18;101784.78;;;10.65;71.61
55068;BME280;40965;52.368;9.712;2023-05-20T01:32:49;101789.97;;;10.60;71.31
55068;BME280;40965;52.368;9.712;2023-05-20T01:35:19;101784.69;;;10.57;71.40
55068;BME280;40965;52.368;9.712;2023-05-20T01:37:48;101780.28;;;10.48;71.43
55068;BME280;40965;52.368;9.712;2023-05-20T01:40:15;101785.47;;;10.45;71.80
55068;BME280;40965;52.368;9.712;2023-05-20T01:42:44;101786.31;;;10.42;71.96
55068;BME280;40965;52.368;9.712;2023-05-20T01:45:11;101776.75;;;10.43;71.60
55068;BME280;40965;52.368;9.712;2023-05-20T01:47:37;101780.19;;;10.40;72.12
55068;BME280;40965;52.368;9.712;2023-05-20T01:50:05;101788.84;;;10.36;72.43
55068;BME280;40965;52.368;9.712;2023-05-20T01:52:32;101777.41;;;10.28;72.41
55068;BME280;40965;52.368;9.712;2023-05-20T01:54:58;101780.84;;;10.24;72.85
55068;BME280;40965;52.368;9.712;2023-05-20T01:57:25;101777.31;;;10.20;72.89
55068;BME280;40965;52.368;9.712;2023-05-20T01:59:52;101768.59;;;10.18;72.69
55068;BME280;40965;52.368;9.712;2023-05-20T02:02:18;101782.47;;;10.14;72.69
55068;BME280;40965;52.368;9.712;2023-05-20T02:04:46;101772.00;;;10.11;73.03
55068;BME280;40965;52.368;9.712;2023-05-20T02:07:17;101769.38;;;10.09;73.55
55068;BME280;40965;52.368;9.712;2023-05-20T02:09:44;101771.09;;;10.07;73.14
55068;BME280;40965;52.368;9.712;2023-05-20T02:12:11;101778.06;;;10.07;73.39
55068;BME280;40965;52.368;9.712;2023-05-20T02:14:44;101781.53;;;10.06;73.65
55068;BME280;40965;52.368;9.712;2023-05-20T02:17:15;101770.22;;;10.07;73.58
55068;BME280;40965;52.368;9.712;2023-05-20T02:19:45;101770.16;;;10.02;73.36
55068;BME280;40965;52.368;9.712;2023-05-20T02:22:13;101772.75;;;9.99;73.76
55068;BME280;40965;52.368;9.712;2023-05-20T02:24:39;101774.44;;;9.96;73.49
55068;BME280;40965;52.368;9.712;2023-05-20T02:27:10;101771.78;;;9.92;73.77
55068;BME280;40965;52.368;9.712;2023-05-20T02:29:37;101765.66;;;9.92;74.58
55068;BME280;40965;52.368;9.712;2023-05-20T02:32:04;101770.88;;;9.90;74.41
55068;BME280;40965;52.368;9.712;2023-05-20T02:34:31;101768.25;;;9.87;74.65
55068;BME280;40965;52.368;9.712;2023-05-20T02:36:57;101777.84;;;9.87;74.45
55068;BME280;40965;52.368;9.712;2023-05-20T02:39:24;101777.84;;;9.88;74.44
55068;BME280;40965;52.368;9.712;2023-05-20T02:41:52;101776.09;;;9.86;75.00
55068;BME280;40965;52.368;9.712;2023-05-20T02:44:18;101770.88;;;9.90;74.89
55068;BME280;40965;52.368;9.712;2023-05-20T02:46:45;101780.53;;;9.94;74.87
55068;BME280;40965;52.368;9.712;2023-05-20T02:49:11;101784.91;;;9.96;74.31
55068;BME280;40965;52.368;9.712;2023-05-20T02:51:39;101783.22;;;10.02;74.64
55068;BME280;40965;52.368;9.712;2023-05-20T02:54:05;101781.53;;;10.06;74.46
55068;BME280;40965;52.368;9.712;2023-05-20T02:56:32;101777.22;;;10.09;74.46
55068;BME280;40965;52.368;9.712;2023-05-20T02:58:58;101772.84;;;10.08;74.09
55068;BME280;40965;52.368;9.712;2023-05-20T03:01:28;101774.63;;;10.11;74.30
55068;BME280;40965;52.368;9.712;2023-05-20T03:03:56;101777.22;;;10.11;74.18
55068;BME280;40965;52.368;9.712;2023-05-20T03:06:22;101771.97;;;10.08;74.21
55068;BME280;40965;52.368;9.712;2023-05-20T03:08:49;101773.69;;;10.07;74.64
55068;BME280;40965;52.368;9.712;2023-05-20T03:11:15;101776.31;;;10.07;74.34
55068;BME280;40965;52.368;9.712;2023-05-20T03:13:42;101778.09;;;10.10;74.99
55068;BME280;40965;52.368;9.712;2023-05-20T03:16:09;101773.75;;;10.12;74.13
55068;BME280;40965;52.368;9.712;2023-05-20T03:18:37;101776.34;;;10.09;74.85
55068;BME280;40965;52.368;9.712;2023-05-20T03:21:04;101781.59;;;10.10;74.32
55068;BME280;40965;52.368;9.712;2023-05-20T03:23:30;101771.09;;;10.07;74.58
55068;BME280;40965;52.368;9.712;2023-05-20T03:25:57;101775.44;;;10.05;75.02
55068;BME280;40965;52.368;9.712;2023-05-20T03:28:24;101776.28;;;10.04;75.19
55068;BME280;40965;52.368;9.712;2023-05-20T03:30:51;101780.66;;;10.04;74.97
55068;BME280;40965;52.368;9.712;2023-05-20T03:33:18;101783.28;;;10.04;75.28
55068;BME280;40965;52.368;9.712;2023-05-20T03:35:46;101784.16;;;10.06;75.02
55068;BME280;40965;52.368;9.712;2023-05-20T03:38:13;101785.94;;;10.08;75.01
55068;BME280;40965;52.368;9.712;2023-05-20T03:40:39;101779.84;;;10.13;74.87
55068;BME280;40965;52.368;9.712;2023-05-20T03:43:06;101778.16;;;10.18;74.54
55068;BME280;40965;52.368;9.712;2023-05-20T03:45:33;101780.84;;;10.22;74.77
55068;BME280;40965;52.368;9.712;2023-05-20T03:47:59;101774.78;;;10.26;74.62
55068;BME280;40965;52.368;9.712;2023-05-20T03:50:27;101780.06;;;10.31;74.13
55068;BME280;40965;52.368;9.712;2023-05-20T03:52:55;101781.81;;;10.32;74.25
55068;BME280;40965;52.368;9.712;2023-05-20T03:55:21;101789.75;;;10.37;74.13
55068;BME280;40965;52.368;9.712;2023-05-20T03:57:49;101788.06;;;10.42;74.02
55068;BME280;40965;52.368;9.712;2023-05-20T04:00:15;101790.75;;;10.48;73.56
55068;BME280;40965;52.368;9.712;2023-05-20T04:02:42;101799.50;;;10.52;73.76
55068;BME280;40965;52.368;9.712;2023-05-20T04:05:09;101792.53;;;10.54;73.35
55068;BME280;40965;52.368;9.712;2023-05-20T04:07:36;101786.44;;;10.56;73.54
55068;BME280;40965;52.368;9.712;2023-05-20T04:10:03;101786.47;;;10.58;73.35
55068;BME280;40965;52.368;9.712;2023-05-20T04:12:30;101791.72;;;10.59;72.87
55068;BME280;40965;52.368;9.712;2023-05-20T04:14:57;101790.84;;;10.61;72.71
55068;BME280;40965;52.368;9.712;2023-05-20T04:17:28;101788.25;;;10.64;73.13
55068;BME280;40965;52.368;9.712;2023-05-20T04:19:56;101790.06;;;10.71;72.46
55068;BME280;40965;52.368;9.712;2023-05-20T04:22:24;101785.75;;;10.73;72.19
55068;BME280;40965;52.368;9.712;2023-05-20T04:24:51;101784.00;;;10.76;71.93
55068;BME280;40965;52.368;9.712;2023-05-20T04:27:18;101778.81;;;10.80;71.26
55068;BME280;40965;52.368;9.712;2023-05-20T04:29:45;101780.53;;;10.81;71.01
55068;BME280;40965;52.368;9.712;2023-05-20T04:32:13;101789.31;;;10.84;71.21
55068;BME280;40965;52.368;9.712;2023-05-20T04:34:47;101784.13;;;10.89;71.11
55068;BME280;40965;52.368;9.712;2023-05-20T04:37:14;101784.13;;;10.89;71.13
55068;BME280;40965;52.368;9.712;2023-05-20T04:39:41;101781.50;;;10.89;71.32
55068;BME280;40965;52.368;9.712;2023-05-20T04:42:08;101781.50;;;10.89;71.59
55068;BME280;40965;52.368;9.712;2023-05-20T04:44:34;101778.00;;;10.90;71.49
55068;BME280;40965;52.368;9.712;2023-05-20T04:47:01;101776.25;;;10.92;71.23
55068;BME280;40965;52.368;9.712;2023-05-20T04:49:32;101770.16;;;10.93;71.43
55068;BME280;40965;52.368;9.712;2023-05-20T04:51:59;101772.78;;;10.96;71.65
55068;BME280;40965;52.368;9.712;2023-05-20T04:54:25;101764.97;;;10.98;72.08
55068;BME280;40965;52.368;9.712;2023-05-20T04:56:52;101767.59;;;10.98;71.92
55068;BME280;40965;52.368;9.712;2023-05-20T04:59:18;101771.09;;;10.98;72.49
55068;BME280;40965;52.368;9.712;2023-05-20T05:01:45;101766.75;;;11.00;72.41
55068;BME280;40965;52.368;9.712;2023-05-20T05:04:11;101763.22;;;11.01;72.33
55068;BME280;40965;52.368;9.712;2023-05-20T05:06:38;101775.47;;;11.05;72.10
55068;BME280;40965;52.368;9.712;2023-05-20T05:09:04;101765.00;;;11.05;72.46
55068;BME280;40965;52.368;9.712;2023-05-20T05:11:32;101765.91;;;11.07;72.43
55068;BME280;40965;52.368;9.712;2023-05-20T05:13:58;101762.44;;;11.10;72.54
55068;BME280;40965;52.368;9.712;2023-05-20T05:16:25;101761.56;;;11.13;72.93
55068;BME280;40965;52.368;9.712;2023-05-20T05:18:51;101764.19;;;11.14;73.02
55068;BME280;40965;52.368;9.712;2023-05-20T05:21:18;101765.09;;;11.16;73.25
55068;BME280;40965;52.368;9.712;2023-05-20T05:23:44;101760.75;;;11.21;72.89
55068;BME280;40965;52.368;9.712;2023-05-20T05:26:11;101758.16;;;11.28;73.42
55068;BME280;40965;52.368;9.712;2023-05-20T05:28:40;101760.81;;;11.29;73.67
55068;BME280;40965;52.368;9.712;2023-05-20T05:31:07;101752.09;;;11.32;73.68
55068;BME280;40965;52.368;9.712;2023-05-20T05:33:34;101755.56;;;11.35;73.47
55068;BME280;40965;52.368;9.712;2023-05-20T05:36:01;101752.09;;;11.36;73.22
55068;BME280;40965;52.368;9.712;2023-05-20T05:38:31;101754.72;;;11.36;72.91
55068;BME280;40965;52.368;9.712;2023-05-20T05:40:58;101749.47;;;11.36;73.70
55068;BME280;40965;52.368;9.712;2023-05-20T05:43:24;101753.84;;;11.36;73.83
55068;BME280;40965;52.368;9.712;2023-05-20T05:45:51;101750.38;;;11.38;74.10
55068;BME280;40965;52.368;9.712;2023-05-20T05:48:17;101753.00;;;11.40;74.00
55068;BME280;40965;52.368;9.712;2023-05-20T05:50:45;101756.50;;;11.42;73.44
55068;BME280;40965;52.368;9.712;2023-05-20T05:53:11;101757.38;;;11.44;73.78
55068;BME280;40965;52.368;9.712;2023-05-20T05:55:38;101760.91;;;11.49;73.51
55068;BME280;40965;52.368;9.712;2023-05-20T05:58:04;101752.19;;;11.50;74.03
55068;BME280;40965;52.368;9.712;2023-05-20T06:00:31;101760.91;;;11.51;73.78
55068;BME280;40965;52.368;9.712;2023-05-20T06:02:57;101759.19;;;11.51;74.16
55068;BME280;40965;52.368;9.712;2023-05-20T06:05:24;101763.53;;;11.52;74.19
55068;BME280;40965;52.368;9.712;2023-05-20T06:07:50;101760.94;;;11.55;73.84
55068;BME280;40965;52.368;9.712;2023-05-20T06:10:17;101757.47;;;11.59;74.40
55068;BME280;40965;52.368;9.712;2023-05-20T06:12:44;101751.34;;;11.65;74.36
55068;BME280;40965;52.368;9.712;2023-05-20T06:15:10;101751.38;;;11.74;74.28
55068;BME280;40965;52.368;9.712;2023-05-20T06:17:37;101753.16;;;11.75;74.23
55068;BME280;40965;52.368;9.712;2023-05-20T06:20:04;101749.69;;;11.81;74.35
55068;BME280;40965;52.368;9.712;2023-05-20T06:22:34;101745.34;;;11.88;74.08
55068;BME280;40965;52.368;9.712;2023-05-20T06:25:01;101747.97;;;11.92;74.18
55068;BME280;40965;52.368;9.712;2023-05-20T06:27:27;101755.03;;;12.01;74.04
55068;BME280;40965;52.368;9.712;2023-05-20T06:29:54;101753.31;;;12.16;73.93
55068;BME280;40965;52.368;9.712;2023-05-20T06:32:20;101753.34;;;12.28;73.24
55068;BME280;40965;52.368;9.712;2023-05-20T06:34:47;101751.59;;;12.41;72.34
55068;BME280;40965;52.368;9.712;2023-05-20T06:37:13;101758.63;;;12.54;72.10
55068;BME280;40965;52.368;9.712;2023-05-20T06:39:40;101759.50;;;12.67;71.70
55068;BME280;40965;52.368;9.712;2023-05-20T06:42:07;101752.50;;;12.82;70.81
55068;BME280;40965;52.368;9.712;2023-05-20T06:44:33;101745.47;;;12.88;70.98
55068;BME280;40965;52.368;9.712;2023-05-20T06:46:59;101751.56;;;12.98;70.52
55068;BME280;40965;52.368;9.712;2023-05-20T06:49:26;101737.56;;;12.99;70.65
55068;BME280;40965;52.368;9.712;2023-05-20T06:51:52;101742.84;;;13.02;70.63
55068;BME280;40965;52.368;9.712;2023-05-20T06:54:21;101737.56;;;13.04;70.69
55068;BME280;40965;52.368;9.712;2023-05-20T06:56:50;101737.53;;;13.10;71.03
55068;BME280;40965;52.368;9.712;2023-05-20T06:59:16;101746.28;;;13.23;70.53
55068;BME280;40965;52.368;9.712;2023-05-20T07:01:43;101736.63;;;13.47;69.43
55068;BME280;40965;52.368;9.712;2023-05-20T07:04:09;101731.28;;;13.65;68.87
55068;BME280;40965;52.368;9.712;2023-05-20T07:06:36;101736.50;;;13.75;68.32
55068;BME280;40965;52.368;9.712;2023-05-20T07:09:02;101726.84;;;13.77;67.79
55068;BME280;40965;52.368;9.712;2023-05-20T07:11:29;101727.72;;;13.77;67.52
55068;BME280;40965;52.368;9.712;2023-05-20T07:13:56;101721.53;;;13.83;67.54
55068;BME280;40965;52.368;9.712;2023-05-20T07:16:23;101720.56;;;14.01;66.85
55068;BME280;40965;52.368;9.712;2023-05-20T07:18:49;101719.53;;;14.22;65.67
55068;BME280;40965;52.368;9.712;2023-05-20T07:21:16;101716.78;;;14.39;65.12
55068;BME280;40965;52.368;9.712;2023-05-20T07:23:42;101717.50;;;14.58;63.73
55068;BME280;40965;52.368;9.712;2023-05-20T07:26:09;101715.44;;;14.93;62.29
55068;BME280;40965;52.368;9.712;2023-05-20T07:28:37;101713.34;;;15.27;60.26
55068;BME280;40965;52.368;9.712;2023-05-20T07:31:03;101718.25;;;15.55;59.29
55068;BME280;40965;52.368;9.712;2023-05-20T07:33:30;101716.25;;;15.76;57.96
55068;BME280;40965;52.368;9.712;2023-05-20T07:35:57;101715.88;;;16.05;57.37
55068;BME280;40965;52.368;9.712;2023-05-20T07:38:23;101707.56;;;16.30;56.21
55068;BME280;40965;52.368;9.712;2023-05-20T07:40:52;101700.19;;;16.49;55.39
55068;BME280;40965;52.368;9.712;2023-05-20T07:43:21;101710.44;;;16.69;54.98
55068;BME280;40965;52.368;9.712;2023-05-20T07:45:47;101709.47;;;16.75;53.96
55068;BME280;40965;52.368;9.712;2023-05-20T07:48:14;101700.66;;;16.74;53.32
55068;BME280;40965;52.368;9.712;2023-05-20T07:50:41;101694.56;;;16.70;52.88
55068;BME280;40965;52.368;9.712;2023-05-20T07:53:09;101701.25;;;16.40;52.49
55068;BME280;40965;52.368;9.712;2023-05-20T07:55:36;101720.78;;;16.30;53.13
55068;BME280;40965;52.368;9.712;2023-05-20T07:58:04;101717.22;;;16.32;53.11
55068;BME280;40965;52.368;9.712;2023-05-20T08:00:33;101704.78;;;16.39;53.07
55068;BME280;40965;52.368;9.712;2023-05-20T08:03:00;101694.75;;;16.60;52.09
55068;BME280;40965;52.368;9.712;2023-05-20T08:05:26;101702.59;;;16.64;51.97
55068;BME280;40965;52.368;9.712;2023-05-20T08:07:53;101697.41;;;16.60;52.53
55068;BME280;40965;52.368;9.712;2023-05-20T08:10:20;101696.38;;;16.67;52.19
55068;BME280;40965;52.368;9.712;2023-05-20T08:12:47;101688.09;;;16.85;52.29
55068;BME280;40965;52.368;9.712;2023-05-20T08:15:13;101687.03;;;16.99;51.29
55068;BME280;40965;52.368;9.712;2023-05-20T08:17:40;101686.53;;;17.22;51.39
55068;BME280;40965;52.368;9.712;2023-05-20T08:20:07;101687.69;;;17.52;50.65
55068;BME280;40965;52.368;9.712;2023-05-20T08:22:34;101682.75;;;17.76;50.48
55068;BME280;40965;52.368;9.712;2023-05-20T08:25:01;101686.44;;;17.71;50.09
55068;BME280;40965;52.368;9.712;2023-05-20T08:27:28;101674.66;;;17.84;49.15
55068;BME280;40965;52.368;9.712;2023-05-20T08:29:54;101668.34;;;18.27;47.88
55068;BME280;40965;52.368;9.712;2023-05-20T08:32:21;101684.88;;;19.38;45.91
55068;BME280;40965;52.368;9.712;2023-05-20T08:34:47;101695.91;;;20.12;43.76
55068;BME280;40965;52.368;9.712;2023-05-20T08:37:14;101680.25;;;20.29;43.16
55068;BME280;40965;52.368;9.712;2023-05-20T08:39:41;101673.06;;;20.33;42.77
55068;BME280;40965;52.368;9.712;2023-05-20T08:42:10;101680.47;;;19.66;43.82
55068;BME280;40965;52.368;9.712;2023-05-20T08:44:39;101661.97;;;19.63;44.25
55068;BME280;40965;52.368;9.712;2023-05-20T08:47:07;101671.13;;;19.23;45.39
55068;BME280;40965;52.368;9.712;2023-05-20T08:49:34;101662.16;;;19.57;45.19
55068;BME280;40965;52.368;9.712;2023-05-20T08:52:01;101661.69;;;20.01;43.90
55068;BME280;40965;52.368;9.712;2023-05-20T08:54:47;101674.91;;;19.74;44.50
55068;BME280;40965;52.368;9.712;2023-05-20T08:57:14;101679.16;;;19.20;45.61
55068;BME280;40965;52.368;9.712;2023-05-20T08:59:42;101673.63;;;18.63;47.15
55068;BME280;40965;52.368;9.712;2023-05-20T09:02:11;101676.78;;;18.07;48.43
55068;BME280;40965;52.368;9.712;2023-05-20T09:04:37;101683.94;;;17.63;49.80
55068;BME280;40965;52.368;9.712;2023-05-20T09:07:04;101679.19;;;17.38;50.78
55068;BME280;40965;52.368;9.712;2023-05-20T09:09:32;101679.91;;;17.01;51.88
55068;BME280;40965;52.368;9.712;2023-05-20T09:12:01;101678.78;;;16.64;52.96
55068;BME280;40965;52.368;9.712;2023-05-20T09:14:29;101674.91;;;16.34;54.32
55068;BME280;40965;52.368;9.712;2023-05-20T09:16:56;101675.00;;;16.28;54.83
55068;BME280;40965;52.368;9.712;2023-05-20T09:19:23;101677.59;;;16.31;54.41
55068;BME280;40965;52.368;9.712;2023-05-20T09:21:52;101678.41;;;16.34;54.72
55068;BME280;40965;52.368;9.712;2023-05-20T09:24:24;101685.59;;;16.28;54.86
55068;BME280;40965;52.368;9.712;2023-05-20T09:26:51;101680.06;;;16.42;54.67
55068;BME280;40965;52.368;9.712;2023-05-20T09:29:22;101677.34;;;16.48;54.33
55068;BME280;40965;52.368;9.712;2023-05-20T09:31:49;101677.56;;;16.34;55.05
55068;BME280;40965;52.368;9.712;2023-05-20T09:34:16;101681.47;;;16.10;55.46
55068;BME280;40965;52.368;9.712;2023-05-20T09:36:43;101680.03;;;15.87;56.20
55068;BME280;40965;52.368;9.712;2023-05-20T09:39:13;101678.34;;;15.80;56.62
55068;BME280;40965;52.368;9.712;2023-05-20T09:42:04;101679.34;;;15.73;57.07
55068;BME280;40965;52.368;9.712;2023-05-20T09:44:32;101684.84;;;15.55;57.71
55068;BME280;40965;52.368;9.712;2023-05-20T09:47:00;101675.22;;;15.50;57.70
55068;BME280;40965;52.368;9.712;2023-05-20T09:49:27;101672.50;;;15.59;57.08
55068;BME280;40965;52.368;9.712;2023-05-20T09:51:55;101671.47;;;15.68;56.59
55068;BME280;40965;52.368;9.712;2023-05-20T09:54:23;101669.63;;;15.76;56.36
55068;BME280;40965;52.368;9.712;2023-05-20T09:56:52;101665.97;;;15.85;55.69
55068;BME280;40965;52.368;9.712;2023-05-20T09:59:21;101671.06;;;15.99;55.53
55068;BME280;40965;52.368;9.712;2023-05-20T10:01:47;101671.16;;;15.93;55.98
55068;BME280;40965;52.368;9.712;2023-05-20T10:04:15;101682.75;;;15.81;56.54
55068;BME280;40965;52.368;9.712;2023-05-20T10:06:49;101669.72;;;15.68;57.20
55068;BME280;40965;52.368;9.712;2023-05-20T10:12:38;101680.34;;;15.64;56.83
55068;BME280;40965;52.368;9.712;2023-05-20T10:15:24;101669.81;;;15.61;57.20
55068;BME280;40965;52.368;9.712;2023-05-20T10:18:05;101670.63;;;15.64;57.61
55068;BME280;40965;52.368;9.712;2023-05-20T10:20:45;101671.47;;;15.68;57.41
55068;BME280;40965;52.368;9.712;2023-05-20T10:23:29;101656.47;;;15.71;57.69
55068;BME280;40965;52.368;9.712;2023-05-20T10:25:57;101660.91;;;15.68;57.58
55068;BME280;40965;52.368;9.712;2023-05-20T10:28:28;101670.69;;;15.61;58.50
55068;BME280;40965;52.368;9.712;2023-05-20T10:30:56;101676.03;;;15.55;58.71
55068;BME280;40965;52.368;9.712;2023-05-20T10:33:25;101664.69;;;15.48;59.15
55068;BME280;40965;52.368;9.712;2023-05-20T10:35:53;101659.53;;;15.41;59.63
55068;BME280;40965;52.368;9.712;2023-05-20T10:38:23;101669.25;;;15.37;59.83
55068;BME280;40965;52.368;9.712;2023-05-20T10:40:49;101668.22;;;15.47;59.89
55068;BME280;40965;52.368;9.712;2023-05-20T10:43:27;101661.66;;;15.78;59.01
55068;BME280;40965;52.368;9.712;2023-05-20T10:45:55;101651.31;;;16.23;57.19
55068;BME280;40965;52.368;9.712;2023-05-20T10:48:29;101644.25;;;17.20;54.77
55068;BME280;40965;52.368;9.712;2023-05-20T10:50:58;101642.44;;;18.39;50.83
55068;BME280;40965;52.368;9.712;2023-05-20T10:53:36;101646.31;;;18.25;50.59
55068;BME280;40965;52.368;9.712;2023-05-20T10:56:04;101639.88;;;17.99;50.87
55068;BME280;40965;52.368;9.712;2023-05-20T10:58:38;101644.69;;;17.80;51.60
55068;BME280;40965;52.368;9.712;2023-05-20T11:01:04;101629.16;;;17.66;52.29
55068;BME280;40965;52.368;9.712;2023-05-20T11:03:33;101630.09;;;17.62;52.42
55068;BME280;40965;52.368;9.712;2023-05-20T11:06:00;101633.13;;;17.86;52.24
55068;BME280;40965;52.368;9.712;2023-05-20T11:08:28;101632.84;;;17.98;51.33
55068;BME280;40965;52.368;9.712;2023-05-20T11:10:56;101623.25;;;17.53;52.39
55068;BME280;40965;52.368;9.712;2023-05-20T11:13:23;101620.53;;;17.16;53.68
55068;BME280;40965;52.368;9.712;2023-05-20T11:15:50;101623.47;;;17.02;54.29
55068;BME280;40965;52.368;9.712;2023-05-20T11:18:17;101621.88;;;16.95;55.53
55068;BME280;40965;52.368;9.712;2023-05-20T11:20:45;101621.78;;;16.98;55.07
55068;BME280;40965;52.368;9.712;2023-05-20T11:23:13;101614.72;;;16.98;55.33
55068;BME280;40965;52.368;9.712;2023-05-20T11:25:40;101617.16;;;17.08;54.59
55068;BME280;40965;52.368;9.712;2023-05-20T11:28:11;101616.28;;;17.09;54.66
55068;BME280;40965;52.368;9.712;2023-05-20T11:30:41;101614.88;;;16.89;55.34
55068;BME280;40965;52.368;9.712;2023-05-20T11:33:10;101613.53;;;16.68;55.94
55068;BME280;40965;52.368;9.712;2023-05-20T11:35:44;101606.66;;;16.58;56.46
55068;BME280;40965;52.368;9.712;2023-05-20T11:38:15;101600.53;;;16.57;56.57
55068;BME280;40965;52.368;9.712;2023-05-20T11:40:43;101607.41;;;16.64;56.17
55068;BME280;40965;52.368;9.712;2023-05-20T11:43:20;101606.13;;;16.85;55.69
55068;BME280;40965;52.368;9.712;2023-05-20T11:45:53;101597.09;;;16.99;55.39
55068;BME280;40965;52.368;9.712;2023-05-20T11:48:23;101592.56;;;17.04;55.46
55068;BME280;40965;52.368;9.712;2023-05-20T11:50:52;101587.84;;;17.18;55.04
55068;BME280;40965;52.368;9.712;2023-05-20T11:53:21;101578.94;;;17.23;54.70
55068;BME280;40965;52.368;9.712;2023-05-20T11:55:51;101587.53;;;17.34;54.55
55068;BME280;40965;52.368;9.712;2023-05-20T11:58:20;101577.88;;;17.31;54.41
55068;BME280;40965;52.368;9.712;2023-05-20T12:00:50;101577.84;;;17.33;54.28
55068;BME280;40965;52.368;9.712;2023-05-20T12:03:17;101581.63;;;17.21;54.75
55068;BME280;40965;52.368;9.712;2023-05-20T12:05:44;101571.25;;;17.10;55.54
55068;BME280;40965;52.368;9.712;2023-05-20T12:08:11;101566.97;;;17.05;55.76
55068;BME280;40965;52.368;9.712;2023-05-20T12:10:38;101565.81;;;17.18;55.50
55068;BME280;40965;52.368;9.712;2023-05-20T12:13:06;101556.53;;;17.39;55.11
55068;BME280;40965;52.368;9.712;2023-05-20T12:15:35;101554.66;;;17.44;54.96
55068;BME280;40965;52.368;9.712;2023-05-20T12:18:01;101554.44;;;17.52;54.39
55068;BME280;40965;52.368;9.712;2023-05-20T12:20:28;101550.13;;;17.85;53.16
55068;BME280;40965;52.368;9.712;2023-05-20T12:22:58;101540.88;;;18.04;52.56
55068;BME280;40965;52.368;9.712;2023-05-20T12:25:25;101542.88;;;17.94;52.83
55068;BME280;40965;52.368;9.712;2023-05-20T12:27:52;101545.38;;;17.64;53.93
55068;BME280;40965;52.368;9.712;2023-05-20T12:30:19;101541.16;;;17.55;54.50
55068;BME280;40965;52.368;9.712;2023-05-20T12:32:48;101551.81;;;17.52;54.32
55068;BME280;40965;52.368;9.712;2023-05-20T12:35:16;101544.25;;;17.36;54.74
55068;BME280;40965;52.368;9.712;2023-05-20T12:37:45;101541.00;;;17.24;55.00
55068;BME280;40965;52.368;9.712;2023-05-20T12:40:11;101546.81;;;17.40;54.74
55068;BME280;40965;52.368;9.712;2023-05-20T12:42:40;101540.72;;;17.36;55.14
55068;BME280;40965;52.368;9.712;2023-05-20T12:45:07;101534.56;;;17.35;55.14
55068;BME280;40965;52.368;9.712;2023-05-20T12:47:34;101539.88;;;17.34;54.98
55068;BME280;40965;52.368;9.712;2023-05-20T12:50:02;101533.44;;;17.46;54.81
55068;BME280;40965;52.368;9.712;2023-05-20T12:52:29;101524.00;;;17.70;54.19
55068;BME280;40965;52.368;9.712;2023-05-20T12:54:55;101523.03;;;17.74;53.59
55068;BME280;40965;52.368;9.712;2023-05-20T12:57:22;101524.78;;;17.75;53.64